| Date | Time | Temp. (oF) | Dew Point (oF) | Rel. Hum. (%) | Press. (in.) | Wind Dir. | Wind Speed (mph) | Hourly Rainfall (in.) |
|
|---|---|---|---|---|---|---|---|---|---|
| 1 | 08/09 | 00:00 | 71 | 65 | 84 | 30.17 | ESE | 0 | 0.00 |
| 2 | 08/08 | 23:00 | 72 | 65 | 80 | 30.15 | ESE | 0 | 0.00 |
| 3 | 08/08 | 22:00 | 73 | 64 | 75 | 30.13 | E | 0 | 0.00 |
| 4 | 08/08 | 21:00 | 73 | 64 | 75 | 30.11 | SSE | 4 | 0.00 |
| 5 | 08/08 | 20:00 | 76 | 65 | 69 | 30.15 | SE | 0 | 0.00 |
| 6 | 08/08 | 19:00 | 77 | 62 | 62 | 30.15 | SSE | 0 | 0.00 |
| 7 | 08/08 | 18:00 | 79 | 62 | 57 | 30.15 | SSW | 0 | 0.00 |
| 8 | 08/08 | 17:00 | 81 | 61 | 51 | 30.15 | WSW | 4 | 0.00 |
| 9 | 08/08 | 16:00 | 82 | 63 | 54 | 30.16 | SSW | 3 | 0.00 |
| 10 | 08/08 | 15:00 | 81 | 60 | 50 | 30.18 | ENE | 0 | 0.00 |
| 11 | 08/08 | 14:00 | 80 | 58 | 48 | 30.19 | SE | 0 | 0.00 |
| 12 | 08/08 | 13:00 | 80 | 62 | 55 | 30.20 | SSW | 2 | 0.00 |
| 13 | 08/08 | 12:00 | 78 | 59 | 53 | 30.22 | ENE | 8 | 0.00 |
| 14 | 08/08 | 11:00 | 76 | 61 | 60 | 30.23 | NE | 5 | 0.00 |
| 15 | 08/08 | 10:00 | 74 | 60 | 63 | 30.24 | ESE | 0 | 0.00 |
| 16 | 08/08 | 09:00 | 71 | 61 | 72 | 30.25 | ESE | 0 | 0.00 |
| 17 | 08/08 | 08:00 | 67 | 64 | 91 | 30.24 | ESE | 0 | 0.00 |
| 18 | 08/08 | 07:00 | 64 | 62 | 96 | 30.23 | SSW | 0 | 0.00 |
| 19 | 08/08 | 06:00 | 63 | 61 | 95 | 30.22 | SSW | 0 | 0.00 |
| 20 | 08/08 | 05:00 | 64 | 62 | 94 | 30.21 | SSW | 0 | 0.00 |
| 21 | 08/08 | 04:00 | 65 | 62 | 92 | 30.19 | SSW | 0 | 0.00 |
| 22 | 08/08 | 03:00 | 65 | 62 | 92 | 30.18 | SSW | 0 | 0.00 |
| 23 | 08/08 | 02:00 | 66 | 62 | 88 | 30.18 | NNW | 0 | 0.00 |
| 24 | 08/08 | 01:00 | 68 | 63 | 85 | 30.18 | W | 0 | 0.00 |